createdAt,value
2023-03-24T00:01:57.086Z,12.40
2023-03-24T00:04:28.446Z,12.40
2023-03-24T00:06:55.494Z,12.40
2023-03-24T00:09:22.646Z,12.30
2023-03-24T00:11:49.636Z,12.30
2023-03-24T00:14:16.680Z,12.30
2023-03-24T00:16:43.661Z,12.30
2023-03-24T00:19:13.179Z,12.30
2023-03-24T00:21:42.020Z,12.40
2023-03-24T00:24:11.219Z,12.40
2023-03-24T00:26:40.386Z,12.40
2023-03-24T00:29:11.000Z,12.40
2023-03-24T00:31:40.553Z,12.40
2023-03-24T00:34:09.094Z,12.40
2023-03-24T00:36:37.082Z,12.40
2023-03-24T00:39:06.481Z,12.40
2023-03-24T00:41:33.940Z,12.40
2023-03-24T00:44:06.565Z,12.40
2023-03-24T00:46:35.235Z,12.40
2023-03-24T00:49:05.670Z,12.40
2023-03-24T00:51:37.743Z,12.40
2023-03-24T00:54:06.231Z,12.40
2023-03-24T00:56:35.840Z,12.40
2023-03-24T00:59:03.511Z,12.40
2023-03-24T01:01:35.007Z,12.50
2023-03-24T01:04:03.893Z,12.50
2023-03-24T01:06:30.961Z,12.50
2023-03-24T01:08:57.968Z,12.60
2023-03-24T01:11:26.496Z,12.60
2023-03-24T01:13:54.591Z,12.70
2023-03-24T01:16:25.694Z,12.80
2023-03-24T01:18:52.870Z,12.80
2023-03-24T01:21:19.820Z,12.90
2023-03-24T01:23:47.701Z,13.00
2023-03-24T01:26:15.456Z,13.10
2023-03-24T01:28:43.780Z,13.20
2023-03-24T01:31:11.748Z,13.20
2023-03-24T01:33:39.189Z,13.30
2023-03-24T01:36:07.499Z,13.30
2023-03-24T01:38:35.081Z,13.40
2023-03-24T01:41:03.784Z,13.30
2023-03-24T01:43:33.257Z,13.30
2023-03-24T01:46:19.976Z,13.20
2023-03-24T01:49:04.877Z,13.20
2023-03-24T01:51:39.648Z,13.10
2023-03-24T01:54:31.399Z,13.10
2023-03-24T01:57:26.165Z,12.90
2023-03-24T01:59:57.556Z,12.90
2023-03-24T02:02:26.204Z,12.90
2023-03-24T02:04:58.631Z,12.70
2023-03-24T02:07:33.734Z,12.50
2023-03-24T02:10:04.096Z,12.40
2023-03-24T02:12:32.237Z,12.20
2023-03-24T02:15:00.157Z,12.20
2023-03-24T02:18:02.778Z,12.20
2023-03-24T02:21:10.975Z,12.10
2023-03-24T02:24:09.406Z,11.90
2023-03-24T02:26:55.322Z,11.80
2023-03-24T02:30:00.844Z,11.60
2023-03-24T02:32:55.332Z,11.50
2023-03-24T02:35:59.361Z,11.50
2023-03-24T02:39:03.650Z,11.40
2023-03-24T02:41:49.438Z,11.50
2023-03-24T02:44:22.545Z,11.40
2023-03-24T02:47:16.715Z,11.40
2023-03-24T02:49:59.236Z,11.40
2023-03-24T02:53:11.199Z,11.40
2023-03-24T02:55:54.133Z,11.40
2023-03-24T02:58:48.913Z,11.20
2023-03-24T03:01:31.258Z,11.20
2023-03-24T03:04:04.321Z,11.20
2023-03-24T03:06:36.337Z,11.30
2023-03-24T03:09:09.787Z,11.40
2023-03-24T03:11:41.363Z,11.50
2023-03-24T03:14:20.231Z,11.50
2023-03-24T03:16:53.511Z,11.50
2023-03-24T03:19:31.954Z,11.40
2023-03-24T03:22:00.420Z,11.30
2023-03-24T03:24:33.001Z,11.30
2023-03-24T03:27:08.318Z,11.20
2023-03-24T03:29:39.990Z,11.30
2023-03-24T03:32:12.121Z,11.30
2023-03-24T03:34:52.658Z,11.30
2023-03-24T03:37:32.527Z,11.20
2023-03-24T03:40:01.952Z,11.10
2023-03-24T03:42:29.188Z,11.20
2023-03-24T03:44:56.403Z,11.20
2023-03-24T03:47:23.336Z,11.10
2023-03-24T03:49:50.936Z,11.10
2023-03-24T03:52:18.329Z,11.00
2023-03-24T03:54:45.610Z,11.00
2023-03-24T03:57:14.084Z,10.90
2023-03-24T03:59:41.003Z,10.80
2023-03-24T04:02:42.283Z,10.80
2023-03-24T04:05:30.386Z,10.80
2023-03-24T04:08:18.880Z,11.00
2023-03-24T04:11:14.058Z,11.10
2023-03-24T04:13:50.212Z,11.10
2023-03-24T04:16:23.199Z,11.00
2023-03-24T04:18:59.996Z,11.00
2023-03-24T04:21:34.312Z,11.10
2023-03-24T04:24:05.231Z,11.00
2023-03-24T04:26:55.889Z,10.90
2023-03-24T04:29:53.767Z,10.90
2023-03-24T04:32:30.444Z,10.80
2023-03-24T04:35:02.728Z,10.80
2023-03-24T04:37:33.361Z,10.60
2023-03-24T04:40:06.076Z,10.50
2023-03-24T04:42:36.453Z,10.50
2023-03-24T04:45:05.962Z,10.50
2023-03-24T04:47:39.136Z,10.50
2023-03-24T04:50:11.098Z,10.40
2023-03-24T04:52:42.930Z,10.30
2023-03-24T04:55:51.786Z,10.20
2023-03-24T04:58:21.026Z,10.10
2023-03-24T05:00:49.174Z,10.20
2023-03-24T05:03:17.495Z,10.10
2023-03-24T05:05:47.032Z,10.10
2023-03-24T05:08:16.375Z,9.90
2023-03-24T05:10:43.888Z,9.90
2023-03-24T05:13:11.879Z,10.00
2023-03-24T05:15:39.426Z,9.90
2023-03-24T05:18:06.751Z,9.90
2023-03-24T05:20:33.590Z,9.80
2023-03-24T05:23:01.647Z,9.80
2023-03-24T05:25:28.443Z,9.80
2023-03-24T05:27:55.900Z,9.80
2023-03-24T05:30:22.645Z,9.80
2023-03-24T05:32:49.676Z,9.80
2023-03-24T05:35:16.778Z,9.80
2023-03-24T05:37:43.889Z,9.80
2023-03-24T05:40:11.561Z,9.80
2023-03-24T05:42:39.413Z,9.80
2023-03-24T05:45:06.999Z,9.90
2023-03-24T05:47:34.140Z,10.10
2023-03-24T05:50:01.024Z,10.10
2023-03-24T05:52:29.117Z,10.10
2023-03-24T05:54:56.357Z,10.10
2023-03-24T05:57:23.332Z,10.10
2023-03-24T05:59:50.138Z,10.20
2023-03-24T06:02:17.119Z,10.20
2023-03-24T06:04:49.303Z,10.10
2023-03-24T06:07:17.975Z,10.20
2023-03-24T06:09:50.943Z,10.20
2023-03-24T06:12:18.261Z,10.20
2023-03-24T06:14:45.584Z,10.40
2023-03-24T06:17:17.806Z,10.40
2023-03-24T06:19:48.852Z,10.40
2023-03-24T06:22:20.121Z,10.30
2023-03-24T06:24:47.865Z,10.40
2023-03-24T06:27:15.623Z,10.40
2023-03-24T06:29:42.466Z,10.40
2023-03-24T06:32:10.239Z,10.60
2023-03-24T06:34:38.819Z,10.70
2023-03-24T06:37:06.058Z,10.80
2023-03-24T06:39:33.252Z,10.70
2023-03-24T06:42:00.348Z,10.80
2023-03-24T06:44:27.279Z,10.90
2023-03-24T06:46:54.317Z,10.80
2023-03-24T06:49:21.376Z,10.80
2023-03-24T06:51:48.385Z,10.90
2023-03-24T06:54:15.930Z,11.00
2023-03-24T06:56:43.276Z,11.10
2023-03-24T06:59:10.407Z,11.40
2023-03-24T07:01:38.595Z,11.40
2023-03-24T07:04:06.386Z,11.60
2023-03-24T07:06:40.460Z,11.60
2023-03-24T07:09:13.995Z,11.60
2023-03-24T07:11:41.464Z,11.50
2023-03-24T07:14:08.604Z,11.60
2023-03-24T07:16:35.490Z,11.70
2023-03-24T07:19:02.884Z,11.80
2023-03-24T07:21:29.884Z,11.90
2023-03-24T07:23:56.966Z,11.90
2023-03-24T07:26:23.972Z,11.90
2023-03-24T07:28:51.196Z,11.70
2023-03-24T07:31:18.129Z,11.60
2023-03-24T07:33:45.432Z,11.90
2023-03-24T07:36:12.214Z,12.20
2023-03-24T07:38:40.040Z,12.30
2023-03-24T07:41:07.108Z,12.20
2023-03-24T07:43:34.172Z,12.30
2023-03-24T07:46:01.280Z,12.40
2023-03-24T07:48:28.225Z,13.00
2023-03-24T07:50:55.297Z,13.50
2023-03-24T07:53:22.375Z,13.90
2023-03-24T07:55:49.642Z,14.40
2023-03-24T07:58:16.883Z,14.30
2023-03-24T08:00:44.736Z,15.00
2023-03-24T08:03:15.619Z,16.10
2023-03-24T08:05:44.276Z,17.30
2023-03-24T08:08:11.666Z,17.30
2023-03-24T08:10:38.604Z,16.90
2023-03-24T08:13:05.808Z,17.00
2023-03-24T08:15:32.799Z,16.90
2023-03-24T08:17:59.822Z,17.00
2023-03-24T08:20:28.154Z,17.50
2023-03-24T08:22:55.820Z,18.20
2023-03-24T08:25:24.921Z,19.00
2023-03-24T08:27:52.392Z,18.20
2023-03-24T08:30:26.873Z,17.00
2023-03-24T08:32:59.638Z,16.40
2023-03-24T08:35:31.912Z,15.30
2023-03-24T08:37:59.484Z,15.20
2023-03-24T08:40:28.547Z,15.10
2023-03-24T08:43:02.556Z,14.80
2023-03-24T08:45:31.914Z,15.70
2023-03-24T08:48:01.643Z,16.40
2023-03-24T08:50:32.407Z,16.30
2023-03-24T08:52:59.386Z,16.10
2023-03-24T08:55:27.033Z,15.70
2023-03-24T08:57:54.057Z,15.30
2023-03-24T09:00:21.590Z,15.20
2023-03-24T09:02:51.912Z,14.80
2023-03-24T09:05:22.787Z,14.40
2023-03-24T09:07:56.596Z,14.50
2023-03-24T09:10:23.650Z,14.50
2023-03-24T09:12:50.831Z,14.40
2023-03-24T09:15:17.903Z,14.50
2023-03-24T09:17:45.578Z,15.00
2023-03-24T09:20:15.978Z,15.10
2023-03-24T09:22:45.864Z,14.90
2023-03-24T09:25:16.055Z,14.50
2023-03-24T09:27:43.260Z,14.10
2023-03-24T09:30:11.941Z,13.80
2023-03-24T09:32:38.898Z,14.00
2023-03-24T09:35:08.203Z,14.20
2023-03-24T09:37:36.892Z,14.80
2023-03-24T09:40:05.005Z,15.70
2023-03-24T09:42:40.483Z,15.20
2023-03-24T09:45:16.945Z,15.10
2023-03-24T09:48:11.005Z,16.70
2023-03-24T09:50:53.757Z,18.60
2023-03-24T09:53:37.129Z,18.10
2023-03-24T09:56:14.369Z,17.70
2023-03-24T09:58:42.848Z,17.40
2023-03-24T10:01:15.242Z,17.10
2023-03-24T10:03:46.762Z,17.10
2023-03-24T10:06:23.133Z,17.70
2023-03-24T10:09:16.001Z,17.80
2023-03-24T10:12:03.345Z,19.20
2023-03-24T10:14:32.954Z,20.50
2023-03-24T10:17:12.551Z,20.60
2023-03-24T10:20:07.594Z,21.30
2023-03-24T10:22:48.403Z,20.10
2023-03-24T10:25:21.505Z,19.60
2023-03-24T10:28:12.614Z,19.80
2023-03-24T10:30:44.622Z,19.00
2023-03-24T10:33:13.543Z,18.40
2023-03-24T10:36:07.678Z,17.20
2023-03-24T10:38:35.592Z,16.60
2023-03-24T10:41:03.236Z,16.60
2023-03-24T10:43:32.196Z,17.10
2023-03-24T10:46:02.122Z,16.70
2023-03-24T10:48:43.013Z,16.10
2023-03-24T10:51:23.412Z,15.80
2023-03-24T10:53:52.126Z,15.40
2023-03-24T10:56:42.218Z,15.30
2023-03-24T10:59:33.110Z,15.20
2023-03-24T11:02:23.366Z,15.10
2023-03-24T11:05:03.612Z,15.60
2023-03-24T11:07:36.992Z,17.00
2023-03-24T11:10:09.998Z,17.40
2023-03-24T11:13:18.764Z,17.30
2023-03-24T11:16:10.309Z,17.00
2023-03-24T11:18:37.314Z,16.80
2023-03-24T11:21:06.860Z,17.00
2023-03-24T11:23:37.643Z,16.60
2023-03-24T11:26:13.546Z,16.80
2023-03-24T11:28:47.178Z,17.30
2023-03-24T11:31:31.603Z,18.00
2023-03-24T11:34:03.377Z,19.10
2023-03-24T11:36:30.577Z,18.00
2023-03-24T11:39:02.163Z,17.90
2023-03-24T11:41:29.788Z,17.70
2023-03-24T11:44:22.475Z,16.90
2023-03-24T11:47:18.677Z,16.20
2023-03-24T11:50:11.916Z,15.80
2023-03-24T11:52:54.108Z,16.00
2023-03-24T11:55:29.455Z,16.00
2023-03-24T11:57:58.201Z,16.70
2023-03-24T12:00:34.803Z,18.10
2023-03-24T12:03:23.390Z,19.90
2023-03-24T12:06:06.660Z,18.90
2023-03-24T12:09:02.527Z,17.50
2023-03-24T12:11:51.683Z,16.60
2023-03-24T12:14:42.787Z,16.10
2023-03-24T12:17:28.836Z,16.90
2023-03-24T12:20:44.326Z,18.50
2023-03-24T12:23:43.723Z,20.20
2023-03-24T12:26:17.050Z,20.90
2023-03-24T12:28:51.406Z,20.10
2023-03-24T12:31:45.286Z,18.10
2023-03-24T12:34:22.295Z,17.10
2023-03-24T12:37:01.293Z,16.80
2023-03-24T12:39:37.218Z,16.40
2023-03-24T12:42:12.821Z,15.70
2023-03-24T12:44:51.527Z,15.30
2023-03-24T12:47:26.674Z,14.90
2023-03-24T12:50:02.055Z,14.50
2023-03-24T12:53:07.616Z,13.90
2023-03-24T12:55:43.417Z,13.00
2023-03-24T12:58:42.970Z,12.20
2023-03-24T13:01:35.547Z,12.00
2023-03-24T13:04:08.923Z,12.10
2023-03-24T13:07:01.619Z,12.30
2023-03-24T13:09:31.480Z,12.50
2023-03-24T13:12:03.699Z,13.10
2023-03-24T13:14:37.022Z,14.00
2023-03-24T13:17:13.736Z,15.40
2023-03-24T13:19:42.427Z,16.50
2023-03-24T13:22:16.331Z,17.90
2023-03-24T13:24:45.254Z,18.90
2023-03-24T13:27:26.582Z,19.90
2023-03-24T13:30:02.214Z,20.40
2023-03-24T13:32:44.404Z,19.10
2023-03-24T13:35:29.735Z,17.90
2023-03-24T13:38:18.975Z,16.90
2023-03-24T13:40:50.804Z,16.30
2023-03-24T13:43:22.729Z,16.20
2023-03-24T13:45:52.400Z,16.70
2023-03-24T13:48:32.393Z,18.00
2023-03-24T13:51:04.235Z,17.80
2023-03-24T13:53:33.104Z,17.00
2023-03-24T13:56:01.444Z,16.20
2023-03-24T13:59:05.494Z,16.00
2023-03-24T14:01:40.066Z,15.70
2023-03-24T14:04:19.009Z,15.40
2023-03-24T14:06:47.777Z,15.20
2023-03-24T14:09:30.922Z,15.00
2023-03-24T14:12:03.929Z,15.00
2023-03-24T14:14:35.032Z,14.80
2023-03-24T14:17:16.505Z,14.80
2023-03-24T14:20:10.824Z,14.70
2023-03-24T14:22:49.919Z,14.70
2023-03-24T14:25:16.994Z,14.80
2023-03-24T14:27:47.071Z,14.80
2023-03-24T14:30:26.133Z,14.80
2023-03-24T14:32:56.653Z,14.80
2023-03-24T14:35:32.902Z,14.60
2023-03-24T14:38:17.556Z,14.40
2023-03-24T14:40:49.930Z,14.30
2023-03-24T14:43:30.396Z,14.20
2023-03-24T14:46:06.926Z,14.20
2023-03-24T14:49:09.903Z,14.10
2023-03-24T14:51:52.728Z,14.20
2023-03-24T14:54:29.542Z,14.20
2023-03-24T14:56:58.245Z,14.40
2023-03-24T14:59:39.942Z,14.40
2023-03-24T15:02:26.411Z,14.40
2023-03-24T15:05:34.440Z,14.40
2023-03-24T15:08:18.834Z,14.20
2023-03-24T15:10:53.287Z,14.10
2023-03-24T15:13:34.940Z,14.20
2023-03-24T15:16:06.952Z,14.40
2023-03-24T15:18:34.841Z,14.50
2023-03-24T15:21:13.213Z,14.60
2023-03-24T15:23:40.340Z,14.70
2023-03-24T15:26:16.648Z,14.80
2023-03-24T15:28:43.539Z,14.70
2023-03-24T15:31:12.487Z,14.60
2023-03-24T15:33:43.626Z,14.80
2023-03-24T15:36:16.689Z,14.70
2023-03-24T15:38:51.209Z,14.50
2023-03-24T15:41:22.042Z,14.60
2023-03-24T15:43:53.767Z,14.90
2023-03-24T15:46:27.820Z,15.10
2023-03-24T15:48:56.216Z,14.90
2023-03-24T15:51:50.924Z,14.70
2023-03-24T15:54:31.272Z,14.70
2023-03-24T15:57:22.799Z,14.40
2023-03-24T15:59:55.734Z,14.30
2023-03-24T16:02:43.334Z,14.30
2023-03-24T16:05:36.441Z,14.30
2023-03-24T16:08:05.759Z,14.30
2023-03-24T16:10:40.349Z,14.20
2023-03-24T16:13:19.576Z,14.20
2023-03-24T16:16:14.436Z,14.20
2023-03-24T16:18:43.925Z,14.10
2023-03-24T16:21:20.455Z,14.10
2023-03-24T16:23:48.684Z,14.20
2023-03-24T16:26:18.500Z,14.20
2023-03-24T16:28:45.275Z,14.00
2023-03-24T16:31:17.977Z,13.60
2023-03-24T16:33:45.269Z,13.20
2023-03-24T16:36:13.429Z,12.90
2023-03-24T16:38:40.397Z,12.80
2023-03-24T16:41:10.978Z,12.60
2023-03-24T16:43:38.100Z,12.40
2023-03-24T16:46:06.058Z,12.20
2023-03-24T16:48:33.068Z,11.80
2023-03-24T16:51:00.110Z,11.60
2023-03-24T16:53:27.081Z,11.30
2023-03-24T16:55:54.144Z,10.90
2023-03-24T16:58:21.286Z,10.70
2023-03-24T17:00:49.606Z,10.50
2023-03-24T17:03:17.889Z,10.30
2023-03-24T17:05:51.104Z,10.30
2023-03-24T17:08:19.103Z,10.30
2023-03-24T17:10:49.470Z,10.30
2023-03-24T17:13:25.541Z,10.30
2023-03-24T17:15:53.053Z,10.40
2023-03-24T17:18:20.507Z,10.40
2023-03-24T17:20:48.382Z,10.50
2023-03-24T17:23:18.598Z,10.60
2023-03-24T17:25:46.056Z,10.80
2023-03-24T17:28:15.568Z,10.80
2023-03-24T17:30:42.838Z,10.90
2023-03-24T17:33:15.782Z,10.80
2023-03-24T17:35:46.525Z,10.80
2023-03-24T17:38:16.387Z,10.90
2023-03-24T17:40:43.389Z,11.00
2023-03-24T17:43:10.326Z,11.00
2023-03-24T17:45:37.348Z,10.90
2023-03-24T17:48:04.592Z,10.90
2023-03-24T17:50:31.726Z,10.80
2023-03-24T17:53:00.585Z,10.80
2023-03-24T17:55:27.533Z,10.80
2023-03-24T17:57:54.673Z,10.80
2023-03-24T18:00:21.841Z,10.70
2023-03-24T18:02:48.800Z,10.70
2023-03-24T18:05:15.784Z,10.70
2023-03-24T18:07:42.854Z,10.70
2023-03-24T18:10:10.186Z,10.70
2023-03-24T18:12:37.381Z,10.70
2023-03-24T18:15:07.108Z,10.70
2023-03-24T18:17:34.370Z,10.70
2023-03-24T18:20:09.927Z,10.80
2023-03-24T18:22:40.738Z,10.70
2023-03-24T18:25:10.656Z,10.70
2023-03-24T18:27:37.854Z,10.70
2023-03-24T18:30:06.832Z,10.70
2023-03-24T18:32:35.934Z,10.50
2023-03-24T18:35:02.889Z,10.50
2023-03-24T18:37:29.959Z,10.40
2023-03-24T18:39:57.004Z,10.40
2023-03-24T18:42:23.980Z,10.40
2023-03-24T18:44:51.539Z,10.40
2023-03-24T18:47:18.885Z,10.30
2023-03-24T18:49:46.064Z,10.30
2023-03-24T18:52:17.909Z,10.20
2023-03-24T18:54:45.840Z,10.30
2023-03-24T18:57:13.089Z,10.30
2023-03-24T18:59:39.808Z,10.30
2023-03-24T19:02:07.299Z,10.30
2023-03-24T19:04:34.452Z,10.30
2023-03-24T19:07:04.046Z,10.30
2023-03-24T19:09:31.394Z,10.30
2023-03-24T19:11:58.411Z,10.30
2023-03-24T19:14:26.538Z,10.30
2023-03-24T19:16:53.330Z,10.40
2023-03-24T19:19:20.438Z,10.40
2023-03-24T19:21:47.592Z,10.50
2023-03-24T19:24:14.577Z,10.50
2023-03-24T19:26:41.553Z,10.60
2023-03-24T19:29:08.559Z,10.60
2023-03-24T19:31:35.712Z,10.60
2023-03-24T19:34:03.968Z,10.60
2023-03-24T19:36:30.965Z,10.60
2023-03-24T19:38:58.027Z,10.60
2023-03-24T19:41:26.349Z,10.60
2023-03-24T19:43:53.813Z,10.60
2023-03-24T19:46:21.160Z,10.50
2023-03-24T19:48:48.438Z,10.30
2023-03-24T19:51:15.278Z,10.10
2023-03-24T19:53:42.397Z,10.00
2023-03-24T19:56:09.500Z,10.00
2023-03-24T19:58:36.481Z,9.90
2023-03-24T20:01:03.364Z,10.00
2023-03-24T20:03:30.199Z,9.90
2023-03-24T20:06:02.361Z,9.90
2023-03-24T20:08:29.247Z,10.00
2023-03-24T20:10:56.240Z,10.00
2023-03-24T20:13:25.726Z,10.00
2023-03-24T20:15:53.301Z,10.00
2023-03-24T20:18:20.631Z,10.00
2023-03-24T20:20:47.711Z,9.90
2023-03-24T20:23:14.707Z,10.00
2023-03-24T20:25:42.607Z,10.10
2023-03-24T20:28:09.459Z,10.00
2023-03-24T20:30:36.263Z,10.00
2023-03-24T20:33:03.437Z,10.00
2023-03-24T20:35:30.498Z,9.90
2023-03-24T20:37:57.460Z,9.90
2023-03-24T20:40:25.625Z,10.00
2023-03-24T20:42:52.887Z,9.90
2023-03-24T20:45:19.801Z,9.90
2023-03-24T20:47:47.131Z,9.90
2023-03-24T20:50:14.306Z,9.90
2023-03-24T20:52:41.367Z,9.90
2023-03-24T20:55:09.971Z,9.90
2023-03-24T20:57:37.336Z,9.80
2023-03-24T21:00:13.295Z,9.80
2023-03-24T21:02:42.029Z,9.80
2023-03-24T21:05:09.608Z,9.80
2023-03-24T21:07:38.157Z,9.80
2023-03-24T21:10:06.758Z,9.80
2023-03-24T21:12:34.523Z,9.80
2023-03-24T21:15:02.166Z,9.80
2023-03-24T21:17:32.346Z,9.80
2023-03-24T21:20:13.192Z,9.80
2023-03-24T21:22:56.150Z,9.80
2023-03-24T21:25:26.573Z,9.90
2023-03-24T21:27:54.684Z,9.80
2023-03-24T21:30:22.866Z,9.80
2023-03-24T21:32:52.141Z,9.90
2023-03-24T21:35:20.795Z,10.00
2023-03-24T21:37:48.132Z,10.10
2023-03-24T21:40:18.380Z,10.10
2023-03-24T21:42:46.755Z,10.00
2023-03-24T21:45:16.664Z,10.10
2023-03-24T21:47:46.024Z,10.10
2023-03-24T21:50:18.859Z,10.10
2023-03-24T21:52:47.634Z,10.10
2023-03-24T21:55:16.532Z,10.10
2023-03-24T21:57:45.566Z,10.00
2023-03-24T22:00:19.521Z,10.10
2023-03-24T22:02:49.866Z,10.10
2023-03-24T22:05:22.371Z,10.10
2023-03-24T22:07:50.533Z,10.10
2023-03-24T22:10:22.708Z,10.00
2023-03-24T22:12:51.424Z,10.00
2023-03-24T22:15:19.755Z,10.10
2023-03-24T22:17:47.149Z,10.00
2023-03-24T22:20:14.746Z,10.10
2023-03-24T22:22:42.329Z,10.00
2023-03-24T22:25:12.150Z,10.00
2023-03-24T22:27:39.215Z,10.00
2023-03-24T22:30:07.452Z,10.00
2023-03-24T22:32:35.713Z,9.90
2023-03-24T22:35:02.790Z,10.00
2023-03-24T22:37:29.915Z,9.90
2023-03-24T22:39:57.074Z,9.90
2023-03-24T22:42:24.134Z,9.90
2023-03-24T22:44:51.258Z,9.90
2023-03-24T22:47:19.392Z,9.90
2023-03-24T22:49:46.571Z,9.90
2023-03-24T22:52:13.550Z,9.90
2023-03-24T22:54:40.686Z,9.90
2023-03-24T22:57:07.745Z,9.90
2023-03-24T22:59:35.661Z,10.10
2023-03-24T23:02:09.839Z,10.00
2023-03-24T23:04:39.710Z,9.90
2023-03-24T23:07:07.655Z,9.80
2023-03-24T23:09:34.909Z,9.90
2023-03-24T23:12:02.492Z,9.90
2023-03-24T23:14:30.002Z,9.80
2023-03-24T23:16:57.261Z,9.70
2023-03-24T23:19:24.192Z,9.70
2023-03-24T23:21:51.341Z,9.60
2023-03-24T23:24:18.397Z,9.60
2023-03-24T23:26:47.289Z,9.60
2023-03-24T23:29:14.468Z,9.60
2023-03-24T23:31:41.577Z,9.70
2023-03-24T23:34:11.223Z,9.70
2023-03-24T23:36:39.785Z,9.70
2023-03-24T23:39:06.798Z,9.60
2023-03-24T23:41:34.156Z,9.60
2023-03-24T23:44:01.214Z,9.60
2023-03-24T23:46:28.441Z,9.60
2023-03-24T23:48:55.373Z,9.50
2023-03-24T23:51:22.590Z,9.50
2023-03-24T23:53:49.425Z,9.40
2023-03-24T23:56:21.293Z,9.50
2023-03-24T23:58:48.409Z,9.40
